createdAt,value
2023-08-16T00:01:49.404Z,1.55
2023-08-16T00:04:17.834Z,0.95
2023-08-16T00:06:45.933Z,1.20
2023-08-16T00:09:14.328Z,1.08
2023-08-16T00:11:44.073Z,1.10
2023-08-16T00:14:12.065Z,1.10
2023-08-16T00:16:41.319Z,1.00
2023-08-16T00:19:09.626Z,1.00
2023-08-16T00:21:37.838Z,1.10
2023-08-16T00:24:07.438Z,1.05
2023-08-16T00:26:35.828Z,1.00
2023-08-16T00:29:05.640Z,1.25
2023-08-16T00:31:33.626Z,1.30
2023-08-16T00:34:01.944Z,1.20
2023-08-16T00:36:29.991Z,1.30
2023-08-16T00:38:57.985Z,1.17
2023-08-16T00:41:26.184Z,0.90
2023-08-16T00:43:54.149Z,1.08
2023-08-16T00:46:24.137Z,1.10
2023-08-16T00:48:52.754Z,1.00
2023-08-16T00:51:20.954Z,0.68
2023-08-16T00:53:49.110Z,1.00
2023-08-16T00:56:18.874Z,0.70
2023-08-16T00:58:46.990Z,1.08
2023-08-16T01:01:15.389Z,1.05
2023-08-16T01:03:45.544Z,1.20
2023-08-16T01:06:13.783Z,1.35
2023-08-16T01:08:42.288Z,1.17
2023-08-16T01:11:18.432Z,0.88
2023-08-16T01:13:56.647Z,1.23
2023-08-16T01:16:28.091Z,1.27
2023-08-16T01:18:58.427Z,1.37
2023-08-16T01:21:28.241Z,1.12
2023-08-16T01:24:07.069Z,1.65
2023-08-16T01:26:39.648Z,1.87
2023-08-16T01:29:09.680Z,1.65
2023-08-16T01:31:39.700Z,1.40
2023-08-16T01:34:08.986Z,1.73
2023-08-16T01:36:37.686Z,1.17
2023-08-16T01:39:06.063Z,1.40
2023-08-16T01:41:41.063Z,2.00
2023-08-16T01:44:10.685Z,1.70
2023-08-16T01:46:41.115Z,1.60
2023-08-16T01:49:09.887Z,1.23
2023-08-16T01:51:38.635Z,1.60
2023-08-16T01:54:07.823Z,1.33
2023-08-16T01:56:36.071Z,1.87
2023-08-16T01:59:05.765Z,1.83
2023-08-16T02:01:33.806Z,2.00
2023-08-16T02:04:02.152Z,3.50
2023-08-16T02:06:32.060Z,3.67
2023-08-16T02:09:00.218Z,3.28
2023-08-16T02:11:28.486Z,4.53
2023-08-16T02:13:56.424Z,4.22
2023-08-16T02:16:30.180Z,3.95
2023-08-16T02:18:58.220Z,4.47
2023-08-16T02:21:26.784Z,4.20
2023-08-16T02:23:56.805Z,4.07
2023-08-16T02:26:24.812Z,4.70
2023-08-16T02:28:53.399Z,4.32
2023-08-16T02:31:21.461Z,4.55
2023-08-16T02:33:50.914Z,3.85
2023-08-16T02:36:19.171Z,4.43
2023-08-16T02:38:47.190Z,3.97
2023-08-16T02:41:15.183Z,3.22
2023-08-16T02:43:44.878Z,3.65
2023-08-16T02:46:12.903Z,2.60
2023-08-16T02:48:40.975Z,2.97
2023-08-16T02:51:10.601Z,2.85
2023-08-16T02:53:38.640Z,3.17
2023-08-16T02:56:06.613Z,3.37
2023-08-16T02:58:38.023Z,3.17
2023-08-16T03:01:06.153Z,3.40
2023-08-16T03:03:34.450Z,3.35
2023-08-16T03:06:02.741Z,3.15
2023-08-16T03:08:33.601Z,3.30
2023-08-16T03:11:02.783Z,3.03
2023-08-16T03:13:31.313Z,2.72
2023-08-16T03:15:59.280Z,3.80
2023-08-16T03:18:28.926Z,3.30
2023-08-16T03:20:57.724Z,3.55
2023-08-16T03:23:25.989Z,3.45
2023-08-16T03:25:55.925Z,3.12
2023-08-16T03:28:25.112Z,3.60
2023-08-16T03:30:53.286Z,3.53
2023-08-16T03:33:21.664Z,3.80
2023-08-16T03:35:50.140Z,3.22
2023-08-16T03:38:18.111Z,3.12
2023-08-16T03:40:46.496Z,3.62
2023-08-16T03:43:15.788Z,2.97
2023-08-16T03:45:44.887Z,3.33
2023-08-16T03:48:13.373Z,3.80
2023-08-16T03:50:41.454Z,3.42
2023-08-16T03:53:09.448Z,3.55
2023-08-16T03:55:37.643Z,3.35
2023-08-16T03:58:05.906Z,6.85
2023-08-16T04:00:35.174Z,6.87
2023-08-16T04:03:05.331Z,7.30
2023-08-16T04:05:34.443Z,7.22
2023-08-16T04:08:02.413Z,6.70
2023-08-16T04:10:30.850Z,6.32
2023-08-16T04:12:58.839Z,6.72
2023-08-16T04:15:26.921Z,6.97
2023-08-16T04:17:57.676Z,6.28
2023-08-16T04:20:26.937Z,8.10
2023-08-16T04:22:55.416Z,7.75
2023-08-16T04:25:23.561Z,11.82
2023-08-16T04:27:51.899Z,11.57
2023-08-16T04:30:20.247Z,11.48
2023-08-16T04:32:49.699Z,11.10
2023-08-16T04:35:19.459Z,11.90
2023-08-16T04:37:48.133Z,10.25
2023-08-16T04:40:16.293Z,11.85
2023-08-16T04:42:44.363Z,9.85
2023-08-16T04:45:12.993Z,9.93
2023-08-16T04:47:41.024Z,10.05
2023-08-16T04:50:09.715Z,10.10
2023-08-16T04:52:39.621Z,10.63
2023-08-16T04:55:08.439Z,9.18
2023-08-16T04:57:36.796Z,10.45
2023-08-16T05:00:08.789Z,10.38
2023-08-16T05:02:38.319Z,10.32
2023-08-16T05:05:07.425Z,10.38
2023-08-16T05:07:35.587Z,12.20
2023-08-16T05:10:06.020Z,11.93
2023-08-16T05:12:34.320Z,11.68
2023-08-16T05:15:02.428Z,10.82
2023-08-16T05:17:32.080Z,11.20
2023-08-16T05:20:00.807Z,11.23
2023-08-16T05:22:28.960Z,11.98
2023-08-16T05:24:56.938Z,12.27
2023-08-16T05:27:26.618Z,12.57
2023-08-16T05:29:54.678Z,11.50
2023-08-16T05:32:23.638Z,11.05
2023-08-16T05:34:53.430Z,10.80
2023-08-16T05:37:21.964Z,10.23
2023-08-16T05:39:50.402Z,9.50
2023-08-16T05:42:18.672Z,9.15
2023-08-16T05:44:48.266Z,8.85
2023-08-16T05:47:16.356Z,8.68
2023-08-16T05:49:44.699Z,8.98
2023-08-16T05:52:12.675Z,9.20
2023-08-16T05:54:40.757Z,9.23
2023-08-16T05:57:09.037Z,7.95
2023-08-16T05:59:37.038Z,8.73
2023-08-16T06:02:07.898Z,9.65
2023-08-16T06:04:36.357Z,8.45
2023-08-16T06:07:05.370Z,7.45
2023-08-16T06:09:34.894Z,6.55
2023-08-16T06:12:03.153Z,5.85
2023-08-16T06:14:31.190Z,5.47
2023-08-16T06:16:59.175Z,5.28
2023-08-16T06:19:28.791Z,4.72
2023-08-16T06:21:56.851Z,4.37
2023-08-16T06:24:24.887Z,4.40
2023-08-16T06:26:53.185Z,4.62
2023-08-16T06:29:21.179Z,4.07
2023-08-16T06:31:49.451Z,4.45
2023-08-16T06:34:18.114Z,3.95
2023-08-16T06:36:47.914Z,4.25
2023-08-16T06:39:15.995Z,4.37
2023-08-16T06:41:44.741Z,4.35
2023-08-16T06:44:12.997Z,4.50
2023-08-16T06:46:40.978Z,4.28
2023-08-16T06:49:09.528Z,4.55
2023-08-16T06:51:37.585Z,4.03
2023-08-16T06:54:07.128Z,3.65
2023-08-16T06:56:36.901Z,3.65
2023-08-16T06:59:06.419Z,3.25
2023-08-16T07:01:34.417Z,2.65
2023-08-16T07:04:03.830Z,2.20
2023-08-16T07:06:32.663Z,2.10
2023-08-16T07:09:01.167Z,2.40
2023-08-16T07:11:30.884Z,2.70
2023-08-16T07:14:00.652Z,3.20
2023-08-16T07:16:28.896Z,3.03
2023-08-16T07:18:57.189Z,3.10
2023-08-16T07:21:25.174Z,3.62
2023-08-16T07:23:53.141Z,4.07
2023-08-16T07:26:21.383Z,3.90
2023-08-16T07:28:50.717Z,3.33
2023-08-16T07:31:19.000Z,3.87
2023-08-16T07:33:47.265Z,4.60
2023-08-16T07:36:15.213Z,4.30
2023-08-16T07:38:43.198Z,2.92
2023-08-16T07:41:11.497Z,4.12
2023-08-16T07:43:39.488Z,4.30
2023-08-16T07:46:08.964Z,4.45
2023-08-16T07:48:37.274Z,5.15
2023-08-16T07:51:05.701Z,5.53
2023-08-16T07:53:33.964Z,6.07
2023-08-16T07:56:02.214Z,6.10
2023-08-16T07:58:30.516Z,5.80
2023-08-16T08:00:58.465Z,6.37
2023-08-16T08:03:28.031Z,6.65
2023-08-16T08:06:02.625Z,6.18
2023-08-16T08:08:31.044Z,6.55
2023-08-16T08:10:59.101Z,6.47
2023-08-16T08:13:27.398Z,6.78
2023-08-16T08:15:56.345Z,7.28
2023-08-16T08:18:24.594Z,7.40
2023-08-16T08:20:54.098Z,6.75
2023-08-16T08:23:22.315Z,6.80
2023-08-16T08:25:50.508Z,6.75
2023-08-16T08:28:18.730Z,5.57
2023-08-16T08:30:46.958Z,5.35
2023-08-16T08:33:15.003Z,4.80
2023-08-16T08:35:44.701Z,4.43
2023-08-16T08:38:14.686Z,3.55
2023-08-16T08:40:42.786Z,3.05
2023-08-16T08:43:12.295Z,3.22
2023-08-16T08:45:43.240Z,2.95
2023-08-16T08:48:13.699Z,3.80
2023-08-16T08:50:43.954Z,2.85
2023-08-16T08:53:12.804Z,3.25
2023-08-16T08:55:46.443Z,3.03
2023-08-16T08:58:18.704Z,2.55
2023-08-16T09:00:47.744Z,2.20
2023-08-16T09:03:19.894Z,2.20
2023-08-16T09:05:49.248Z,2.30
2023-08-16T09:08:17.900Z,2.25
2023-08-16T09:10:47.777Z,2.10
2023-08-16T09:13:17.270Z,2.03
2023-08-16T09:15:45.614Z,2.00
2023-08-16T09:18:15.379Z,2.15
2023-08-16T09:20:44.371Z,2.08
2023-08-16T09:23:14.642Z,2.20
2023-08-16T09:25:43.100Z,1.90
2023-08-16T09:28:16.316Z,2.50
2023-08-16T09:30:45.534Z,1.73
2023-08-16T09:33:15.529Z,1.80
2023-08-16T09:35:50.028Z,2.37
2023-08-16T09:38:37.928Z,1.75
2023-08-16T09:41:14.542Z,1.77
2023-08-16T09:43:44.511Z,2.03
2023-08-16T09:46:13.913Z,1.77
2023-08-16T09:49:10.614Z,1.83
2023-08-16T09:54:02.743Z,1.62
2023-08-16T09:56:38.464Z,1.30
2023-08-16T09:59:37.033Z,1.58
2023-08-16T10:09:36.961Z,1.70
2023-08-16T10:12:07.694Z,2.00
2023-08-16T10:14:39.242Z,2.10
2023-08-16T10:17:10.310Z,1.40
2023-08-16T10:19:45.376Z,1.70
2023-08-16T10:22:32.850Z,1.80
2023-08-16T10:25:07.698Z,1.42
2023-08-16T10:27:39.188Z,1.40
2023-08-16T10:30:14.815Z,1.58
2023-08-16T10:32:45.453Z,1.80
2023-08-16T10:35:15.219Z,2.33
2023-08-16T10:37:47.767Z,2.20
2023-08-16T10:42:54.705Z,2.20
2023-08-16T10:48:11.493Z,1.75
2023-08-16T10:50:40.111Z,1.92
2023-08-16T10:53:09.438Z,1.42
2023-08-16T10:55:37.884Z,2.05
2023-08-16T10:58:05.911Z,2.00
2023-08-16T11:00:43.269Z,1.60
2023-08-16T11:03:20.479Z,1.75
2023-08-16T11:05:50.142Z,1.80
2023-08-16T11:08:18.391Z,1.75
2023-08-16T11:10:46.690Z,1.60
2023-08-16T11:13:15.175Z,2.00
2023-08-16T11:15:44.744Z,1.77
2023-08-16T11:18:15.764Z,1.48
2023-08-16T11:20:45.368Z,1.77
2023-08-16T11:23:13.583Z,1.60
2023-08-16T11:25:41.949Z,1.33
2023-08-16T11:28:10.358Z,1.33
2023-08-16T11:30:38.413Z,2.42
2023-08-16T11:33:16.435Z,1.75
2023-08-16T11:35:47.202Z,1.80
2023-08-16T11:38:16.575Z,1.70
2023-08-16T11:40:48.472Z,1.55
2023-08-16T11:43:16.843Z,1.50
2023-08-16T11:45:45.176Z,1.52
2023-08-16T11:48:16.213Z,1.75
2023-08-16T11:50:44.637Z,1.80
2023-08-16T11:53:18.404Z,1.70
2023-08-16T11:55:57.932Z,1.95
2023-08-16T11:58:26.756Z,1.70
2023-08-16T12:00:55.663Z,1.40
2023-08-16T12:03:25.515Z,1.70
2023-08-16T12:05:53.767Z,1.73
2023-08-16T12:08:22.801Z,1.58
2023-08-16T12:10:55.516Z,1.60
2023-08-16T12:13:25.344Z,1.60
2023-08-16T12:15:53.636Z,1.85
2023-08-16T12:18:23.944Z,1.40
2023-08-16T12:20:54.330Z,1.60
2023-08-16T12:23:22.818Z,1.50
2023-08-16T12:25:51.610Z,1.50
2023-08-16T12:28:20.380Z,1.80
2023-08-16T12:30:48.682Z,1.67
2023-08-16T12:33:17.226Z,1.67
2023-08-16T12:35:45.438Z,1.50
2023-08-16T12:38:15.115Z,1.70
2023-08-16T12:40:45.974Z,1.60
2023-08-16T12:45:45.396Z,1.98
2023-08-16T12:48:13.568Z,1.73
2023-08-16T12:50:42.071Z,2.03
2023-08-16T13:00:48.347Z,1.75
2023-08-16T13:10:56.831Z,1.58
2023-08-16T13:16:08.530Z,1.58
2023-08-16T13:21:19.492Z,2.20
2023-08-16T13:24:23.411Z,1.62
2023-08-16T13:27:00.258Z,1.98
2023-08-16T13:29:30.559Z,1.75
2023-08-16T13:32:05.821Z,1.75
2023-08-16T13:39:43.293Z,2.10
2023-08-16T13:45:16.239Z,1.80
2023-08-16T13:47:33.841Z,1.83
2023-08-16T13:50:01.912Z,1.83
2023-08-16T13:52:30.309Z,1.52
2023-08-16T13:54:58.835Z,1.55
2023-08-16T13:57:28.519Z,1.83
2023-08-16T13:59:56.789Z,1.90
2023-08-16T14:02:25.431Z,1.80
2023-08-16T14:04:54.025Z,1.55
2023-08-16T14:07:22.013Z,1.80
2023-08-16T14:09:50.073Z,1.75
2023-08-16T14:12:18.527Z,1.60
2023-08-16T14:14:47.922Z,1.55
2023-08-16T14:17:16.041Z,1.33
2023-08-16T14:19:45.568Z,1.55
2023-08-16T14:22:13.569Z,1.45
2023-08-16T14:24:41.648Z,1.50
2023-08-16T14:27:09.937Z,1.33
2023-08-16T14:29:38.034Z,1.20
2023-08-16T14:32:07.884Z,1.20
2023-08-16T14:34:36.198Z,1.12
2023-08-16T14:37:04.242Z,1.35
2023-08-16T14:39:32.654Z,1.20
2023-08-16T14:42:01.006Z,1.20
2023-08-16T14:44:29.589Z,1.20
2023-08-16T14:46:57.632Z,1.30
2023-08-16T14:49:27.332Z,1.42
2023-08-16T14:51:55.403Z,1.42
2023-08-16T14:54:23.488Z,1.40
2023-08-16T14:56:51.853Z,1.25
2023-08-16T14:59:19.889Z,1.17
2023-08-16T15:01:47.960Z,1.30
2023-08-16T15:04:16.301Z,1.37
2023-08-16T15:06:46.046Z,1.50
2023-08-16T15:09:14.751Z,1.15
2023-08-16T15:11:43.118Z,1.48
2023-08-16T15:14:11.434Z,1.60
2023-08-16T15:16:39.557Z,1.20
2023-08-16T15:19:07.842Z,1.30
2023-08-16T15:21:38.661Z,1.23
2023-08-16T15:24:08.747Z,1.60
2023-08-16T15:26:37.152Z,1.60
2023-08-16T15:29:05.724Z,1.58
2023-08-16T15:31:33.832Z,1.20
2023-08-16T15:34:02.249Z,1.33
2023-08-16T15:36:32.552Z,1.60
2023-08-16T15:39:00.620Z,1.37
2023-08-16T15:41:33.783Z,1.50
2023-08-16T15:44:03.339Z,1.60
2023-08-16T15:46:32.541Z,1.40
2023-08-16T15:49:00.636Z,1.42
2023-08-16T15:51:28.817Z,1.10
2023-08-16T15:53:57.087Z,1.33
2023-08-16T15:56:25.300Z,1.35
2023-08-16T15:58:54.715Z,1.40
2023-08-16T16:01:25.744Z,1.23
2023-08-16T16:03:54.043Z,1.25
2023-08-16T16:06:22.111Z,1.50
2023-08-16T16:08:50.168Z,1.15
2023-08-16T16:11:23.013Z,1.50
2023-08-16T16:13:51.491Z,1.40
2023-08-16T16:16:21.475Z,1.35
2023-08-16T16:18:49.601Z,1.65
2023-08-16T16:21:17.624Z,1.58
2023-08-16T16:23:45.974Z,1.27
2023-08-16T16:26:13.996Z,1.05
2023-08-16T16:28:42.166Z,1.62
2023-08-16T16:31:10.584Z,1.45
2023-08-16T16:33:39.939Z,1.62
2023-08-16T16:36:08.500Z,1.17
2023-08-16T16:38:36.849Z,1.58
2023-08-16T16:41:04.919Z,1.52
2023-08-16T16:43:32.999Z,1.58
2023-08-16T16:46:01.852Z,1.70
2023-08-16T16:48:29.877Z,1.42
2023-08-16T16:50:59.499Z,1.25
2023-08-16T16:53:27.803Z,1.33
2023-08-16T16:55:55.875Z,1.30
2023-08-16T16:58:23.914Z,1.60
2023-08-16T17:00:52.245Z,1.50
2023-08-16T17:03:20.338Z,1.77
2023-08-16T17:05:48.410Z,1.50
2023-08-16T17:08:18.023Z,1.50
2023-08-16T17:10:46.114Z,1.55
2023-08-16T17:13:15.245Z,1.80
2023-08-16T17:15:43.603Z,1.42
2023-08-16T17:18:11.752Z,1.58
2023-08-16T17:20:39.806Z,1.55
2023-08-16T17:23:08.188Z,1.42
2023-08-16T17:25:38.250Z,1.70
2023-08-16T17:28:06.549Z,1.83
2023-08-16T17:30:36.120Z,1.55
2023-08-16T17:33:04.753Z,1.70
2023-08-16T17:35:33.313Z,1.50
2023-08-16T17:38:01.639Z,1.58
2023-08-16T17:40:29.800Z,1.50
2023-08-16T17:42:59.551Z,1.90
2023-08-16T17:45:27.897Z,1.65
2023-08-16T17:47:55.976Z,1.80
2023-08-16T17:50:24.168Z,1.40
2023-08-16T17:52:52.499Z,1.37
2023-08-16T17:55:20.536Z,1.90
2023-08-16T17:57:49.144Z,1.60
2023-08-16T18:00:19.296Z,1.67
2023-08-16T18:02:47.703Z,1.80
2023-08-16T18:05:16.383Z,2.05
2023-08-16T18:07:44.591Z,1.90
2023-08-16T18:10:12.976Z,1.70
2023-08-16T18:12:41.015Z,1.92
2023-08-16T18:15:10.255Z,2.30
2023-08-16T18:17:40.064Z,2.12
2023-08-16T18:20:10.014Z,2.35
2023-08-16T18:22:38.548Z,2.42
2023-08-16T18:25:06.977Z,2.80
2023-08-16T18:27:35.165Z,3.12
2023-08-16T18:30:03.624Z,3.20
2023-08-16T18:32:31.769Z,2.50
2023-08-16T18:35:01.657Z,3.30
2023-08-16T18:37:32.438Z,3.05
2023-08-16T18:40:00.530Z,3.05
2023-08-16T18:42:28.641Z,3.17
2023-08-16T18:44:57.185Z,3.45
2023-08-16T18:47:25.554Z,3.28
2023-08-16T18:49:54.229Z,3.22
2023-08-16T18:52:23.966Z,4.22
2023-08-16T18:54:52.190Z,3.37
2023-08-16T18:57:21.300Z,3.33
2023-08-16T18:59:49.861Z,3.35
2023-08-16T19:02:17.887Z,3.75
2023-08-16T19:04:46.045Z,3.45
2023-08-16T19:07:14.401Z,3.78
2023-08-16T19:09:43.823Z,3.80
2023-08-16T19:12:13.911Z,3.30
2023-08-16T19:14:42.756Z,3.90
2023-08-16T19:17:10.788Z,3.35
2023-08-16T19:19:38.912Z,3.17
2023-08-16T19:22:07.243Z,3.50
2023-08-16T19:24:35.322Z,4.00
2023-08-16T19:27:04.828Z,3.47
2023-08-16T19:29:33.205Z,3.53
2023-08-16T19:32:01.717Z,4.15
2023-08-16T19:34:29.798Z,3.40
2023-08-16T19:36:58.123Z,3.45
2023-08-16T19:39:26.431Z,2.97
2023-08-16T19:41:54.440Z,3.60
2023-08-16T19:44:24.265Z,3.10
2023-08-16T19:46:52.298Z,3.22
2023-08-16T19:49:21.145Z,3.30
2023-08-16T19:51:49.591Z,3.12
2023-08-16T19:54:17.672Z,3.20
2023-08-16T19:56:45.732Z,3.40
2023-08-16T19:59:14.092Z,3.12
2023-08-16T20:01:45.240Z,3.47
2023-08-16T20:04:13.795Z,3.33
2023-08-16T20:06:42.756Z,3.40
2023-08-16T20:09:11.141Z,3.60
2023-08-16T20:11:39.554Z,3.47
2023-08-16T20:14:07.654Z,3.42
2023-08-16T20:16:37.739Z,3.00
2023-08-16T20:19:09.091Z,3.20
2023-08-16T20:21:37.140Z,3.05
2023-08-16T20:24:06.171Z,3.80
2023-08-16T20:26:34.255Z,2.90
2023-08-16T20:29:02.382Z,3.70
2023-08-16T20:31:30.782Z,3.45
2023-08-16T20:33:58.862Z,3.62
2023-08-16T20:36:28.355Z,3.62
2023-08-16T20:38:56.675Z,3.50
2023-08-16T20:41:26.790Z,3.30
2023-08-16T20:43:54.819Z,2.95
2023-08-16T20:46:35.687Z,3.50
2023-08-16T20:49:08.229Z,3.10
2023-08-16T20:51:38.231Z,3.28
2023-08-16T20:54:14.125Z,3.50
2023-08-16T20:56:43.113Z,3.72
2023-08-16T20:59:11.202Z,3.25
2023-08-16T21:01:43.548Z,3.45
2023-08-16T21:04:13.271Z,3.50
2023-08-16T21:06:42.713Z,3.40
2023-08-16T21:09:10.732Z,3.58
2023-08-16T21:11:39.106Z,3.65
2023-08-16T21:14:09.311Z,3.30
2023-08-16T21:16:37.436Z,3.70
2023-08-16T21:19:05.933Z,3.70
2023-08-16T21:21:34.948Z,3.17
2023-08-16T21:24:04.697Z,3.28
2023-08-16T21:26:33.104Z,3.87
2023-08-16T21:29:01.774Z,3.60
2023-08-16T21:31:29.882Z,3.80
2023-08-16T21:33:58.208Z,3.45
2023-08-16T21:36:26.447Z,3.47
2023-08-16T21:38:55.006Z,2.95
2023-08-16T21:41:24.706Z,3.75
2023-08-16T21:43:52.763Z,2.90
2023-08-16T21:46:20.840Z,3.55
2023-08-16T21:48:49.491Z,3.70
2023-08-16T21:51:17.696Z,3.30
2023-08-16T21:53:45.681Z,2.90
2023-08-16T21:56:14.422Z,3.65
2023-08-16T21:58:43.866Z,3.47
2023-08-16T22:01:11.992Z,3.55
2023-08-16T22:03:40.324Z,3.70
2023-08-16T22:06:08.380Z,3.80
2023-08-16T22:08:36.453Z,3.37
2023-08-16T22:11:06.465Z,3.60
2023-08-16T22:13:35.276Z,3.92
2023-08-16T22:16:04.893Z,3.72
2023-08-16T22:18:33.184Z,3.17
2023-08-16T22:21:03.868Z,3.67
2023-08-16T22:23:33.478Z,4.03
2023-08-16T22:26:01.594Z,3.42
2023-08-16T22:28:29.727Z,4.30
2023-08-16T22:30:58.005Z,3.85
2023-08-16T22:33:27.440Z,3.85
2023-08-16T22:35:55.524Z,3.50
2023-08-16T22:38:24.632Z,4.10
2023-08-16T22:40:52.994Z,4.03
2023-08-16T22:43:21.009Z,3.67
2023-08-16T22:45:49.584Z,3.67
2023-08-16T22:48:17.807Z,4.15
2023-08-16T22:50:47.162Z,4.07
2023-08-16T22:53:15.488Z,3.95
2023-08-16T22:55:43.741Z,3.90
2023-08-16T22:58:11.839Z,3.72
2023-08-16T23:00:40.547Z,3.85
2023-08-16T23:03:09.491Z,3.95
2023-08-16T23:05:37.611Z,4.55
2023-08-16T23:08:08.063Z,4.07
2023-08-16T23:10:36.126Z,4.32
2023-08-16T23:13:24.227Z,3.95
2023-08-16T23:15:52.438Z,3.78
2023-08-16T23:18:20.914Z,3.78
2023-08-16T23:20:48.975Z,3.78
2023-08-16T23:23:18.784Z,3.25
2023-08-16T23:25:47.004Z,3.55
2023-08-16T23:28:15.062Z,3.67
2023-08-16T23:30:43.390Z,3.85
2023-08-16T23:33:11.399Z,4.00
2023-08-16T23:35:39.669Z,4.18
2023-08-16T23:38:08.013Z,4.30
2023-08-16T23:40:37.394Z,3.95
2023-08-16T23:43:05.844Z,3.92
2023-08-16T23:45:34.154Z,3.80
2023-08-16T23:48:03.007Z,4.18
2023-08-16T23:50:31.085Z,3.87
2023-08-16T23:52:59.386Z,3.58
2023-08-16T23:55:27.458Z,3.15
2023-08-16T23:57:56.884Z,4.00
